sensor_id;sensor_type;location;lat;lon;timestamp;P1;durP1;ratioP1;P2;durP2;ratioP2
10166;SDS011;62970;53.130;8.244;2022-09-27T00:01:30;6.77;;;6.07;;
10166;SDS011;62970;53.130;8.244;2022-09-27T00:03:59;5.57;;;5.07;;
10166;SDS011;62970;53.130;8.244;2022-09-27T00:06:30;5.93;;;5.43;;
10166;SDS011;62970;53.130;8.244;2022-09-27T00:09:01;9.60;;;6.00;;
10166;SDS011;62970;53.130;8.244;2022-09-27T00:11:35;5.73;;;5.20;;
10166;SDS011;62970;53.130;8.244;2022-09-27T00:14:07;5.80;;;5.07;;
10166;SDS011;62970;53.130;8.244;2022-09-27T00:16:39;7.10;;;5.10;;
10166;SDS011;62970;53.130;8.244;2022-09-27T00:19:12;5.50;;;4.87;;
10166;SDS011;62970;53.130;8.244;2022-09-27T00:21:43;6.17;;;4.70;;
10166;SDS011;62970;53.130;8.244;2022-09-27T00:24:16;6.30;;;5.00;;
10166;SDS011;62970;53.130;8.244;2022-09-27T00:26:52;6.27;;;4.67;;
10166;SDS011;62970;53.130;8.244;2022-09-27T00:29:21;5.97;;;4.17;;
10166;SDS011;62970;53.130;8.244;2022-09-27T00:31:51;5.27;;;4.07;;
10166;SDS011;62970;53.130;8.244;2022-09-27T00:34:22;5.13;;;3.83;;
10166;SDS011;62970;53.130;8.244;2022-09-27T00:36:53;3.50;;;3.20;;
10166;SDS011;62970;53.130;8.244;2022-09-27T00:39:23;3.67;;;3.30;;
10166;SDS011;62970;53.130;8.244;2022-09-27T00:41:55;5.50;;;3.30;;
10166;SDS011;62970;53.130;8.244;2022-09-27T00:47:32;2.93;;;2.40;;
10166;SDS011;62970;53.130;8.244;2022-09-27T00:50:09;3.27;;;2.90;;
10166;SDS011;62970;53.130;8.244;2022-09-27T00:53:00;4.20;;;2.50;;
10166;SDS011;62970;53.130;8.244;2022-09-27T00:55:39;3.20;;;2.90;;
10166;SDS011;62970;53.130;8.244;2022-09-27T00:58:19;2.93;;;2.40;;
10166;SDS011;62970;53.130;8.244;2022-09-27T01:00:53;2.73;;;2.40;;
10166;SDS011;62970;53.130;8.244;2022-09-27T01:03:29;3.37;;;2.33;;
10166;SDS011;62970;53.130;8.244;2022-09-27T01:06:06;3.07;;;1.97;;
10166;SDS011;62970;53.130;8.244;2022-09-27T01:08:37;3.47;;;2.10;;
10166;SDS011;62970;53.130;8.244;2022-09-27T01:11:11;2.93;;;1.97;;
10166;SDS011;62970;53.130;8.244;2022-09-27T01:13:52;1.50;;;1.40;;
10166;SDS011;62970;53.130;8.244;2022-09-27T01:16:38;2.33;;;1.70;;
10166;SDS011;62970;53.130;8.244;2022-09-27T01:19:16;2.40;;;1.40;;
10166;SDS011;62970;53.130;8.244;2022-09-27T01:22:25;2.80;;;1.60;;
10166;SDS011;62970;53.130;8.244;2022-09-27T01:25:02;3.50;;;1.40;;
10166;SDS011;62970;53.130;8.244;2022-09-27T01:28:03;2.90;;;1.33;;
10166;SDS011;62970;53.130;8.244;2022-09-27T01:30:49;1.37;;;1.10;;
10166;SDS011;62970;53.130;8.244;2022-09-27T01:33:30;2.07;;;1.30;;
10166;SDS011;62970;53.130;8.244;2022-09-27T01:36:16;2.90;;;0.97;;
10166;SDS011;62970;53.130;8.244;2022-09-27T01:39:05;1.57;;;1.00;;
10166;SDS011;62970;53.130;8.244;2022-09-27T01:41:48;2.00;;;0.90;;
10166;SDS011;62970;53.130;8.244;2022-09-27T01:44:28;1.03;;;0.90;;
10166;SDS011;62970;53.130;8.244;2022-09-27T01:47:07;1.53;;;1.00;;
10166;SDS011;62970;53.130;8.244;2022-09-27T01:49:44;1.33;;;1.00;;
10166;SDS011;62970;53.130;8.244;2022-09-27T01:52:25;2.30;;;1.20;;
10166;SDS011;62970;53.130;8.244;2022-09-27T01:55:03;2.03;;;0.70;;
10166;SDS011;62970;53.130;8.244;2022-09-27T01:57:39;1.10;;;0.80;;
10166;SDS011;62970;53.130;8.244;2022-09-27T02:00:15;1.63;;;0.80;;
10166;SDS011;62970;53.130;8.244;2022-09-27T02:02:48;1.63;;;0.80;;
10166;SDS011;62970;53.130;8.244;2022-09-27T02:05:23;1.77;;;0.90;;
10166;SDS011;62970;53.130;8.244;2022-09-27T02:07:59;1.10;;;0.80;;
10166;SDS011;62970;53.130;8.244;2022-09-27T02:10:34;2.07;;;1.00;;
10166;SDS011;62970;53.130;8.244;2022-09-27T02:13:10;1.30;;;1.07;;
10166;SDS011;62970;53.130;8.244;2022-09-27T02:16:00;1.50;;;0.93;;
10166;SDS011;62970;53.130;8.244;2022-09-27T02:18:42;2.30;;;1.00;;
10166;SDS011;62970;53.130;8.244;2022-09-27T02:21:23;2.57;;;1.20;;
10166;SDS011;62970;53.130;8.244;2022-09-27T02:24:03;1.60;;;0.80;;
10166;SDS011;62970;53.130;8.244;2022-09-27T02:26:37;1.60;;;1.03;;
10166;SDS011;62970;53.130;8.244;2022-09-27T02:29:12;1.60;;;1.00;;
10166;SDS011;62970;53.130;8.244;2022-09-27T02:31:46;2.83;;;1.20;;
10166;SDS011;62970;53.130;8.244;2022-09-27T02:34:20;2.77;;;1.40;;
10166;SDS011;62970;53.130;8.244;2022-09-27T02:36:54;2.80;;;1.23;;
10166;SDS011;62970;53.130;8.244;2022-09-27T02:39:24;2.10;;;1.33;;
10166;SDS011;62970;53.130;8.244;2022-09-27T02:41:54;1.50;;;1.00;;
10166;SDS011;62970;53.130;8.244;2022-09-27T02:44:24;2.97;;;1.50;;
10166;SDS011;62970;53.130;8.244;2022-09-27T02:46:59;3.53;;;1.37;;
10166;SDS011;62970;53.130;8.244;2022-09-27T02:50:02;3.83;;;1.50;;
10166;SDS011;62970;53.130;8.244;2022-09-27T02:52:54;1.70;;;1.40;;
10166;SDS011;62970;53.130;8.244;2022-09-27T02:55:36;2.70;;;1.70;;
10166;SDS011;62970;53.130;8.244;2022-09-27T02:58:16;2.30;;;1.70;;
10166;SDS011;62970;53.130;8.244;2022-09-27T03:00:58;2.67;;;1.93;;
10166;SDS011;62970;53.130;8.244;2022-09-27T03:03:35;3.80;;;2.20;;
10166;SDS011;62970;53.130;8.244;2022-09-27T03:06:15;1.90;;;1.80;;
10166;SDS011;62970;53.130;8.244;2022-09-27T03:08:47;4.47;;;2.27;;
10166;SDS011;62970;53.130;8.244;2022-09-27T03:11:17;3.53;;;2.30;;
10166;SDS011;62970;53.130;8.244;2022-09-27T03:13:47;4.30;;;2.40;;
10166;SDS011;62970;53.130;8.244;2022-09-27T03:16:16;3.77;;;2.40;;
10166;SDS011;62970;53.130;8.244;2022-09-27T03:18:45;3.23;;;2.23;;
10166;SDS011;62970;53.130;8.244;2022-09-27T03:21:17;4.30;;;2.80;;
10166;SDS011;62970;53.130;8.244;2022-09-27T03:23:46;6.23;;;2.60;;
10166;SDS011;62970;53.130;8.244;2022-09-27T03:26:15;4.40;;;2.33;;
10166;SDS011;62970;53.130;8.244;2022-09-27T03:28:45;2.87;;;2.20;;
10166;SDS011;62970;53.130;8.244;2022-09-27T03:31:14;4.20;;;2.93;;
10166;SDS011;62970;53.130;8.244;2022-09-27T03:33:44;3.07;;;2.40;;
10166;SDS011;62970;53.130;8.244;2022-09-27T03:36:13;3.57;;;2.23;;
10166;SDS011;62970;53.130;8.244;2022-09-27T03:38:45;3.00;;;2.17;;
10166;SDS011;62970;53.130;8.244;2022-09-27T03:41:14;2.33;;;2.13;;
10166;SDS011;62970;53.130;8.244;2022-09-27T03:43:43;3.33;;;1.87;;
10166;SDS011;62970;53.130;8.244;2022-09-27T03:46:13;2.03;;;1.70;;
10166;SDS011;62970;53.130;8.244;2022-09-27T03:48:42;2.37;;;1.70;;
10166;SDS011;62970;53.130;8.244;2022-09-27T03:51:11;2.60;;;1.77;;
10166;SDS011;62970;53.130;8.244;2022-09-27T03:53:44;3.57;;;1.60;;
10166;SDS011;62970;53.130;8.244;2022-09-27T03:56:13;3.00;;;1.60;;
10166;SDS011;62970;53.130;8.244;2022-09-27T03:58:42;2.97;;;1.50;;
10166;SDS011;62970;53.130;8.244;2022-09-27T04:01:12;1.97;;;1.30;;
10166;SDS011;62970;53.130;8.244;2022-09-27T04:03:42;2.57;;;1.40;;
10166;SDS011;62970;53.130;8.244;2022-09-27T04:06:11;1.27;;;1.10;;
10166;SDS011;62970;53.130;8.244;2022-09-27T04:08:46;2.47;;;1.40;;
10166;SDS011;62970;53.130;8.244;2022-09-27T04:11:15;1.60;;;1.17;;
10166;SDS011;62970;53.130;8.244;2022-09-27T04:13:44;1.20;;;1.10;;
10166;SDS011;62970;53.130;8.244;2022-09-27T04:16:14;1.30;;;1.20;;
10166;SDS011;62970;53.130;8.244;2022-09-27T04:18:44;2.07;;;1.30;;
10166;SDS011;62970;53.130;8.244;2022-09-27T04:21:13;2.73;;;1.37;;
10166;SDS011;62970;53.130;8.244;2022-09-27T04:23:45;3.10;;;1.40;;
10166;SDS011;62970;53.130;8.244;2022-09-27T04:26:14;2.97;;;1.60;;
10166;SDS011;62970;53.130;8.244;2022-09-27T04:28:43;1.80;;;1.43;;
10166;SDS011;62970;53.130;8.244;2022-09-27T04:31:14;2.07;;;1.73;;
10166;SDS011;62970;53.130;8.244;2022-09-27T04:33:44;2.00;;;1.50;;
10166;SDS011;62970;53.130;8.244;2022-09-27T04:36:14;1.50;;;1.27;;
10166;SDS011;62970;53.130;8.244;2022-09-27T04:38:56;3.43;;;2.03;;
10166;SDS011;62970;53.130;8.244;2022-09-27T04:41:28;1.80;;;1.70;;
10166;SDS011;62970;53.130;8.244;2022-09-27T04:43:58;2.80;;;1.70;;
10166;SDS011;62970;53.130;8.244;2022-09-27T04:46:27;3.57;;;1.97;;
10166;SDS011;62970;53.130;8.244;2022-09-27T04:48:59;2.70;;;1.70;;
10166;SDS011;62970;53.130;8.244;2022-09-27T04:51:28;2.67;;;2.00;;
10166;SDS011;62970;53.130;8.244;2022-09-27T04:54:00;3.00;;;2.03;;
10166;SDS011;62970;53.130;8.244;2022-09-27T04:56:30;3.20;;;1.90;;
10166;SDS011;62970;53.130;8.244;2022-09-27T04:58:59;3.07;;;2.10;;
10166;SDS011;62970;53.130;8.244;2022-09-27T05:01:28;2.50;;;2.30;;
10166;SDS011;62970;53.130;8.244;2022-09-27T05:03:58;3.07;;;2.40;;
10166;SDS011;62970;53.130;8.244;2022-09-27T05:06:42;2.80;;;2.20;;
10166;SDS011;62970;53.130;8.244;2022-09-27T05:09:14;3.07;;;2.10;;
10166;SDS011;62970;53.130;8.244;2022-09-27T05:11:43;2.50;;;1.97;;
10166;SDS011;62970;53.130;8.244;2022-09-27T05:14:12;2.30;;;2.10;;
10166;SDS011;62970;53.130;8.244;2022-09-27T05:16:42;3.03;;;2.20;;
10166;SDS011;62970;53.130;8.244;2022-09-27T05:19:12;2.27;;;2.07;;
10166;SDS011;62970;53.130;8.244;2022-09-27T05:21:41;2.43;;;2.20;;
10166;SDS011;62970;53.130;8.244;2022-09-27T05:24:11;4.03;;;1.70;;
10166;SDS011;62970;53.130;8.244;2022-09-27T05:26:42;2.37;;;2.17;;
10166;SDS011;62970;53.130;8.244;2022-09-27T05:29:13;2.70;;;2.50;;
10166;SDS011;62970;53.130;8.244;2022-09-27T05:31:42;2.37;;;2.03;;
10166;SDS011;62970;53.130;8.244;2022-09-27T05:34:11;3.53;;;2.00;;
10166;SDS011;62970;53.130;8.244;2022-09-27T05:36:42;2.53;;;1.90;;
10166;SDS011;62970;53.130;8.244;2022-09-27T05:39:16;1.93;;;1.60;;
10166;SDS011;62970;53.130;8.244;2022-09-27T05:41:46;2.07;;;1.37;;
10166;SDS011;62970;53.130;8.244;2022-09-27T05:44:16;2.57;;;1.50;;
10166;SDS011;62970;53.130;8.244;2022-09-27T05:46:45;2.40;;;1.50;;
10166;SDS011;62970;53.130;8.244;2022-09-27T05:49:14;2.63;;;1.60;;
10166;SDS011;62970;53.130;8.244;2022-09-27T05:51:44;2.07;;;1.50;;
10166;SDS011;62970;53.130;8.244;2022-09-27T05:54:16;3.67;;;1.47;;
10166;SDS011;62970;53.130;8.244;2022-09-27T05:56:45;3.37;;;1.57;;
10166;SDS011;62970;53.130;8.244;2022-09-27T05:59:15;3.17;;;1.40;;
10166;SDS011;62970;53.130;8.244;2022-09-27T06:01:44;2.93;;;1.40;;
10166;SDS011;62970;53.130;8.244;2022-09-27T06:04:15;2.30;;;1.30;;
10166;SDS011;62970;53.130;8.244;2022-09-27T06:06:44;2.00;;;1.20;;
10166;SDS011;62970;53.130;8.244;2022-09-27T06:11:51;1.60;;;1.00;;
10166;SDS011;62970;53.130;8.244;2022-09-27T06:14:21;2.10;;;1.03;;
10166;SDS011;62970;53.130;8.244;2022-09-27T06:16:52;2.40;;;1.20;;
10166;SDS011;62970;53.130;8.244;2022-09-27T06:19:22;0.90;;;0.90;;
10166;SDS011;62970;53.130;8.244;2022-09-27T06:21:51;1.63;;;0.90;;
10166;SDS011;62970;53.130;8.244;2022-09-27T06:24:23;2.77;;;0.90;;
10166;SDS011;62970;53.130;8.244;2022-09-27T06:26:52;1.70;;;1.20;;
10166;SDS011;62970;53.130;8.244;2022-09-27T06:29:22;1.97;;;1.07;;
10166;SDS011;62970;53.130;8.244;2022-09-27T06:31:51;1.37;;;0.93;;
10166;SDS011;62970;53.130;8.244;2022-09-27T06:34:23;2.43;;;1.10;;
10166;SDS011;62970;53.130;8.244;2022-09-27T06:36:52;1.03;;;1.00;;
10166;SDS011;62970;53.130;8.244;2022-09-27T06:39:25;1.53;;;1.20;;
10166;SDS011;62970;53.130;8.244;2022-09-27T06:41:57;1.33;;;0.97;;
10166;SDS011;62970;53.130;8.244;2022-09-27T06:44:26;1.60;;;1.20;;
10166;SDS011;62970;53.130;8.244;2022-09-27T06:46:57;1.30;;;1.10;;
10166;SDS011;62970;53.130;8.244;2022-09-27T06:49:26;1.27;;;0.80;;
10166;SDS011;62970;53.130;8.244;2022-09-27T06:51:55;1.53;;;1.00;;
10166;SDS011;62970;53.130;8.244;2022-09-27T06:54:27;1.63;;;1.10;;
10166;SDS011;62970;53.130;8.244;2022-09-27T06:56:57;2.73;;;1.23;;
10166;SDS011;62970;53.130;8.244;2022-09-27T06:59:26;3.50;;;1.50;;
10166;SDS011;62970;53.130;8.244;2022-09-27T07:02:07;1.80;;;1.10;;
10166;SDS011;62970;53.130;8.244;2022-09-27T07:04:37;2.77;;;1.00;;
10166;SDS011;62970;53.130;8.244;2022-09-27T07:07:07;3.00;;;1.10;;
10166;SDS011;62970;53.130;8.244;2022-09-27T07:09:39;1.93;;;1.30;;
10166;SDS011;62970;53.130;8.244;2022-09-27T07:12:09;1.87;;;1.20;;
10166;SDS011;62970;53.130;8.244;2022-09-27T07:14:39;1.87;;;1.20;;
10166;SDS011;62970;53.130;8.244;2022-09-27T07:17:08;2.03;;;1.27;;
10166;SDS011;62970;53.130;8.244;2022-09-27T07:19:39;2.40;;;1.30;;
10166;SDS011;62970;53.130;8.244;2022-09-27T07:22:10;1.63;;;1.30;;
10166;SDS011;62970;53.130;8.244;2022-09-27T07:24:42;1.60;;;0.93;;
10166;SDS011;62970;53.130;8.244;2022-09-27T07:27:11;2.37;;;1.10;;
10166;SDS011;62970;53.130;8.244;2022-09-27T07:29:42;2.07;;;1.10;;
10166;SDS011;62970;53.130;8.244;2022-09-27T07:32:11;1.07;;;0.90;;
10166;SDS011;62970;53.130;8.244;2022-09-27T07:34:40;2.17;;;1.10;;
10166;SDS011;62970;53.130;8.244;2022-09-27T07:37:10;1.17;;;1.00;;
10166;SDS011;62970;53.130;8.244;2022-09-27T07:39:41;1.57;;;1.00;;
10166;SDS011;62970;53.130;8.244;2022-09-27T07:42:13;1.00;;;0.87;;
10166;SDS011;62970;53.130;8.244;2022-09-27T07:44:42;2.07;;;0.97;;
10166;SDS011;62970;53.130;8.244;2022-09-27T07:47:11;2.83;;;0.90;;
10166;SDS011;62970;53.130;8.244;2022-09-27T07:49:42;2.07;;;1.00;;
10166;SDS011;62970;53.130;8.244;2022-09-27T07:52:12;1.13;;;1.00;;
10166;SDS011;62970;53.130;8.244;2022-09-27T07:54:44;1.80;;;0.80;;
10166;SDS011;62970;53.130;8.244;2022-09-27T07:57:13;1.03;;;0.90;;
10166;SDS011;62970;53.130;8.244;2022-09-27T07:59:43;2.20;;;1.00;;
10166;SDS011;62970;53.130;8.244;2022-09-27T08:02:13;2.70;;;1.20;;
10166;SDS011;62970;53.130;8.244;2022-09-27T08:04:44;2.07;;;1.30;;
10166;SDS011;62970;53.130;8.244;2022-09-27T08:07:16;3.07;;;1.70;;
10166;SDS011;62970;53.130;8.244;2022-09-27T08:09:50;1.87;;;1.30;;
10166;SDS011;62970;53.130;8.244;2022-09-27T08:12:19;2.50;;;1.10;;
10166;SDS011;62970;53.130;8.244;2022-09-27T08:14:51;1.73;;;1.00;;
10166;SDS011;62970;53.130;8.244;2022-09-27T08:17:22;1.10;;;0.80;;
10166;SDS011;62970;53.130;8.244;2022-09-27T08:19:53;0.90;;;0.90;;
10166;SDS011;62970;53.130;8.244;2022-09-27T08:22:22;1.80;;;1.07;;
10166;SDS011;62970;53.130;8.244;2022-09-27T08:24:54;1.47;;;1.10;;
10166;SDS011;62970;53.130;8.244;2022-09-27T08:27:23;1.27;;;0.53;;
10166;SDS011;62970;53.130;8.244;2022-09-27T08:29:53;0.70;;;0.50;;
10166;SDS011;62970;53.130;8.244;2022-09-27T08:32:23;1.67;;;0.90;;
10166;SDS011;62970;53.130;8.244;2022-09-27T08:34:55;1.97;;;0.90;;
10166;SDS011;62970;53.130;8.244;2022-09-27T08:37:24;1.83;;;0.90;;
10166;SDS011;62970;53.130;8.244;2022-09-27T08:39:56;2.03;;;1.13;;
10166;SDS011;62970;53.130;8.244;2022-09-27T08:42:28;1.50;;;1.03;;
10166;SDS011;62970;53.130;8.244;2022-09-27T08:45:09;1.50;;;1.00;;
10166;SDS011;62970;53.130;8.244;2022-09-27T08:47:44;3.00;;;1.30;;
10166;SDS011;62970;53.130;8.244;2022-09-27T08:50:22;2.23;;;1.10;;
10166;SDS011;62970;53.130;8.244;2022-09-27T08:52:56;1.50;;;0.90;;
10166;SDS011;62970;53.130;8.244;2022-09-27T08:55:35;0.87;;;0.83;;
10166;SDS011;62970;53.130;8.244;2022-09-27T08:58:11;3.30;;;1.07;;
10166;SDS011;62970;53.130;8.244;2022-09-27T09:00:48;3.77;;;1.03;;
10166;SDS011;62970;53.130;8.244;2022-09-27T09:03:23;1.53;;;0.90;;
10166;SDS011;62970;53.130;8.244;2022-09-27T09:05:59;1.90;;;0.90;;
10166;SDS011;62970;53.130;8.244;2022-09-27T09:08:45;1.10;;;0.90;;
10166;SDS011;62970;53.130;8.244;2022-09-27T09:11:39;1.27;;;0.90;;
10166;SDS011;62970;53.130;8.244;2022-09-27T09:14:47;1.93;;;1.03;;
10166;SDS011;62970;53.130;8.244;2022-09-27T09:17:36;4.40;;;1.10;;
10166;SDS011;62970;53.130;8.244;2022-09-27T09:20:46;2.60;;;1.30;;
10166;SDS011;62970;53.130;8.244;2022-09-27T09:23:39;2.27;;;1.50;;
10166;SDS011;62970;53.130;8.244;2022-09-27T09:26:27;2.37;;;1.30;;
10166;SDS011;62970;53.130;8.244;2022-09-27T09:29:15;1.63;;;1.20;;
10166;SDS011;62970;53.130;8.244;2022-09-27T09:32:00;3.20;;;1.37;;
10166;SDS011;62970;53.130;8.244;2022-09-27T09:34:45;1.87;;;1.30;;
10166;SDS011;62970;53.130;8.244;2022-09-27T09:37:20;1.57;;;1.07;;
10166;SDS011;62970;53.130;8.244;2022-09-27T09:40:04;1.60;;;1.20;;
10166;SDS011;62970;53.130;8.244;2022-09-27T09:42:48;1.87;;;1.47;;
10166;SDS011;62970;53.130;8.244;2022-09-27T09:45:27;2.90;;;1.20;;
10166;SDS011;62970;53.130;8.244;2022-09-27T09:48:03;1.70;;;1.30;;
10166;SDS011;62970;53.130;8.244;2022-09-27T09:50:41;1.40;;;1.30;;
10166;SDS011;62970;53.130;8.244;2022-09-27T09:53:15;1.80;;;1.27;;
10166;SDS011;62970;53.130;8.244;2022-09-27T09:55:50;1.80;;;1.43;;
10166;SDS011;62970;53.130;8.244;2022-09-27T09:58:27;3.47;;;1.37;;
10166;SDS011;62970;53.130;8.244;2022-09-27T10:01:10;2.00;;;1.17;;
10166;SDS011;62970;53.130;8.244;2022-09-27T10:03:48;1.90;;;1.33;;
10166;SDS011;62970;53.130;8.244;2022-09-27T10:06:18;1.47;;;1.20;;
10166;SDS011;62970;53.130;8.244;2022-09-27T10:08:48;2.60;;;1.33;;
10166;SDS011;62970;53.130;8.244;2022-09-27T10:11:20;2.70;;;1.57;;
10166;SDS011;62970;53.130;8.244;2022-09-27T10:13:54;3.00;;;1.40;;
10166;SDS011;62970;53.130;8.244;2022-09-27T10:16:26;7.87;;;6.37;;
10166;SDS011;62970;53.130;8.244;2022-09-27T10:18:56;3.10;;;2.40;;
10166;SDS011;62970;53.130;8.244;2022-09-27T10:21:30;2.33;;;1.30;;
10166;SDS011;62970;53.130;8.244;2022-09-27T10:24:03;2.90;;;1.47;;
10166;SDS011;62970;53.130;8.244;2022-09-27T10:26:41;1.67;;;1.17;;
10166;SDS011;62970;53.130;8.244;2022-09-27T10:29:24;2.03;;;1.30;;
10166;SDS011;62970;53.130;8.244;2022-09-27T10:32:01;1.77;;;1.07;;
10166;SDS011;62970;53.130;8.244;2022-09-27T10:34:46;2.03;;;1.20;;
10166;SDS011;62970;53.130;8.244;2022-09-27T10:37:21;2.57;;;1.20;;
10166;SDS011;62970;53.130;8.244;2022-09-27T10:39:51;1.57;;;1.13;;
10166;SDS011;62970;53.130;8.244;2022-09-27T10:42:24;3.50;;;1.30;;
10166;SDS011;62970;53.130;8.244;2022-09-27T10:45:19;3.77;;;1.10;;
10166;SDS011;62970;53.130;8.244;2022-09-27T10:48:03;1.80;;;1.20;;
10166;SDS011;62970;53.130;8.244;2022-09-27T10:50:32;4.77;;;1.00;;
10166;SDS011;62970;53.130;8.244;2022-09-27T10:53:06;2.80;;;1.30;;
10166;SDS011;62970;53.130;8.244;2022-09-27T10:55:45;1.77;;;1.20;;
10166;SDS011;62970;53.130;8.244;2022-09-27T10:58:18;2.67;;;1.40;;
10166;SDS011;62970;53.130;8.244;2022-09-27T11:00:56;1.90;;;1.57;;
10166;SDS011;62970;53.130;8.244;2022-09-27T11:03:32;3.23;;;1.50;;
10166;SDS011;62970;53.130;8.244;2022-09-27T11:06:17;1.27;;;1.17;;
10166;SDS011;62970;53.130;8.244;2022-09-27T11:09:09;4.20;;;1.40;;
10166;SDS011;62970;53.130;8.244;2022-09-27T11:11:48;1.87;;;1.40;;
10166;SDS011;62970;53.130;8.244;2022-09-27T11:14:19;1.43;;;1.10;;
10166;SDS011;62970;53.130;8.244;2022-09-27T11:16:58;1.93;;;1.30;;
10166;SDS011;62970;53.130;8.244;2022-09-27T11:20:04;2.07;;;1.10;;
10166;SDS011;62970;53.130;8.244;2022-09-27T11:25:55;2.03;;;1.30;;
10166;SDS011;62970;53.130;8.244;2022-09-27T11:28:44;1.87;;;1.10;;
10166;SDS011;62970;53.130;8.244;2022-09-27T11:31:24;1.90;;;0.90;;
10166;SDS011;62970;53.130;8.244;2022-09-27T11:34:21;2.03;;;0.97;;
10166;SDS011;62970;53.130;8.244;2022-09-27T11:37:11;1.37;;;0.90;;
10166;SDS011;62970;53.130;8.244;2022-09-27T11:39:53;2.03;;;0.80;;
10166;SDS011;62970;53.130;8.244;2022-09-27T11:42:47;2.23;;;1.00;;
10166;SDS011;62970;53.130;8.244;2022-09-27T11:45:53;2.80;;;0.80;;
10166;SDS011;62970;53.130;8.244;2022-09-27T11:48:37;1.83;;;0.93;;
10166;SDS011;62970;53.130;8.244;2022-09-27T11:51:29;1.43;;;1.00;;
10166;SDS011;62970;53.130;8.244;2022-09-27T11:54:20;3.00;;;0.90;;
10166;SDS011;62970;53.130;8.244;2022-09-27T11:57:12;2.23;;;1.40;;
10166;SDS011;62970;53.130;8.244;2022-09-27T12:03:04;1.30;;;0.80;;
10166;SDS011;62970;53.130;8.244;2022-09-27T12:06:02;1.90;;;0.80;;
10166;SDS011;62970;53.130;8.244;2022-09-27T12:08:43;1.37;;;0.90;;
10166;SDS011;62970;53.130;8.244;2022-09-27T12:11:31;2.20;;;0.93;;
10166;SDS011;62970;53.130;8.244;2022-09-27T12:14:10;1.90;;;0.70;;
10166;SDS011;62970;53.130;8.244;2022-09-27T12:16:47;1.20;;;0.90;;
10166;SDS011;62970;53.130;8.244;2022-09-27T12:19:21;1.60;;;1.00;;
10166;SDS011;62970;53.130;8.244;2022-09-27T12:21:56;1.63;;;0.80;;
10166;SDS011;62970;53.130;8.244;2022-09-27T12:24:29;1.73;;;1.00;;
10166;SDS011;62970;53.130;8.244;2022-09-27T12:27:06;2.10;;;0.80;;
10166;SDS011;62970;53.130;8.244;2022-09-27T12:29:42;1.50;;;0.80;;
10166;SDS011;62970;53.130;8.244;2022-09-27T12:32:14;1.13;;;0.90;;
10166;SDS011;62970;53.130;8.244;2022-09-27T12:34:50;1.10;;;0.80;;
10166;SDS011;62970;53.130;8.244;2022-09-27T12:37:30;1.07;;;0.90;;
10166;SDS011;62970;53.130;8.244;2022-09-27T12:40:04;0.50;;;0.50;;
10166;SDS011;62970;53.130;8.244;2022-09-27T12:42:46;1.43;;;0.60;;
10166;SDS011;62970;53.130;8.244;2022-09-27T12:45:25;1.27;;;0.83;;
10166;SDS011;62970;53.130;8.244;2022-09-27T12:48:07;2.17;;;1.00;;
10166;SDS011;62970;53.130;8.244;2022-09-27T12:50:47;1.10;;;1.00;;
10166;SDS011;62970;53.130;8.244;2022-09-27T12:53:20;1.60;;;0.73;;
10166;SDS011;62970;53.130;8.244;2022-09-27T13:05:31;0.60;;;0.60;;
10166;SDS011;62970;53.130;8.244;2022-09-27T13:08:52;1.23;;;0.73;;
10166;SDS011;62970;53.130;8.244;2022-09-27T13:11:46;1.97;;;0.87;;
10166;SDS011;62970;53.130;8.244;2022-09-27T13:14:31;1.17;;;0.80;;
10166;SDS011;62970;53.130;8.244;2022-09-27T13:17:07;0.70;;;0.60;;
10166;SDS011;62970;53.130;8.244;2022-09-27T13:26:45;0.73;;;0.73;;
10166;SDS011;62970;53.130;8.244;2022-09-27T13:29:25;1.00;;;0.60;;
10166;SDS011;62970;53.130;8.244;2022-09-27T13:32:16;0.60;;;0.60;;
10166;SDS011;62970;53.130;8.244;2022-09-27T13:34:48;0.80;;;0.77;;
10166;SDS011;62970;53.130;8.244;2022-09-27T13:37:21;0.73;;;0.73;;
10166;SDS011;62970;53.130;8.244;2022-09-27T13:40:19;0.93;;;0.90;;
10166;SDS011;62970;53.130;8.244;2022-09-27T13:46:22;1.20;;;0.80;;
10166;SDS011;62970;53.130;8.244;2022-09-27T13:48:54;0.97;;;0.90;;
10166;SDS011;62970;53.130;8.244;2022-09-27T13:51:35;1.10;;;0.80;;
10166;SDS011;62970;53.130;8.244;2022-09-27T14:00:13;0.80;;;0.80;;
10166;SDS011;62970;53.130;8.244;2022-09-27T14:02:54;1.47;;;0.80;;
10166;SDS011;62970;53.130;8.244;2022-09-27T14:05:37;1.03;;;1.00;;
10166;SDS011;62970;53.130;8.244;2022-09-27T14:08:25;0.80;;;0.80;;
10166;SDS011;62970;53.130;8.244;2022-09-27T14:10:59;3.13;;;1.00;;
10166;SDS011;62970;53.130;8.244;2022-09-27T14:13:31;0.80;;;0.80;;
10166;SDS011;62970;53.130;8.244;2022-09-27T14:16:02;0.63;;;0.60;;
10166;SDS011;62970;53.130;8.244;2022-09-27T14:18:55;0.63;;;0.63;;
10166;SDS011;62970;53.130;8.244;2022-09-27T14:21:36;0.80;;;0.80;;
10166;SDS011;62970;53.130;8.244;2022-09-27T14:29:24;0.70;;;0.70;;
10166;SDS011;62970;53.130;8.244;2022-09-27T14:32:01;0.70;;;0.70;;
10166;SDS011;62970;53.130;8.244;2022-09-27T14:34:36;0.70;;;0.70;;
10166;SDS011;62970;53.130;8.244;2022-09-27T14:37:18;0.80;;;0.80;;
10166;SDS011;62970;53.130;8.244;2022-09-27T14:39:54;0.90;;;0.90;;
10166;SDS011;62970;53.130;8.244;2022-09-27T14:42:28;1.37;;;1.03;;
10166;SDS011;62970;53.130;8.244;2022-09-27T14:45:02;1.53;;;0.90;;
10166;SDS011;62970;53.130;8.244;2022-09-27T14:47:46;0.63;;;0.63;;
10166;SDS011;62970;53.130;8.244;2022-09-27T14:50:22;1.07;;;0.77;;
10166;SDS011;62970;53.130;8.244;2022-09-27T14:52:57;1.10;;;0.77;;
10166;SDS011;62970;53.130;8.244;2022-09-27T14:58:04;0.93;;;0.60;;
10166;SDS011;62970;53.130;8.244;2022-09-27T15:00:45;0.70;;;0.70;;
10166;SDS011;62970;53.130;8.244;2022-09-27T15:03:18;1.53;;;0.87;;
10166;SDS011;62970;53.130;8.244;2022-09-27T15:06:05;3.13;;;0.80;;
10166;SDS011;62970;53.130;8.244;2022-09-27T15:08:35;0.70;;;0.70;;
10166;SDS011;62970;53.130;8.244;2022-09-27T15:11:06;0.70;;;0.70;;
10166;SDS011;62970;53.130;8.244;2022-09-27T15:13:38;0.60;;;0.60;;
10166;SDS011;62970;53.130;8.244;2022-09-27T15:18:46;1.43;;;0.70;;
10166;SDS011;62970;53.130;8.244;2022-09-27T15:21:29;0.50;;;0.50;;
10166;SDS011;62970;53.130;8.244;2022-09-27T15:24:00;0.70;;;0.70;;
10166;SDS011;62970;53.130;8.244;2022-09-27T15:26:35;1.03;;;0.67;;
10166;SDS011;62970;53.130;8.244;2022-09-27T15:29:16;0.70;;;0.70;;
10166;SDS011;62970;53.130;8.244;2022-09-27T15:34:16;0.70;;;0.70;;
10166;SDS011;62970;53.130;8.244;2022-09-27T15:39:26;0.90;;;0.90;;
10166;SDS011;62970;53.130;8.244;2022-09-27T15:42:05;0.80;;;0.80;;
10166;SDS011;62970;53.130;8.244;2022-09-27T15:44:44;1.37;;;0.97;;
10166;SDS011;62970;53.130;8.244;2022-09-27T15:49:51;0.97;;;0.90;;
10166;SDS011;62970;53.130;8.244;2022-09-27T15:52:38;0.97;;;0.97;;
10166;SDS011;62970;53.130;8.244;2022-09-27T15:55:14;1.00;;;0.90;;
10166;SDS011;62970;53.130;8.244;2022-09-27T15:57:45;0.73;;;0.73;;
10166;SDS011;62970;53.130;8.244;2022-09-27T16:00:17;1.70;;;0.80;;
10166;SDS011;62970;53.130;8.244;2022-09-27T16:02:48;0.87;;;0.87;;
10166;SDS011;62970;53.130;8.244;2022-09-27T16:05:18;1.70;;;1.10;;
10166;SDS011;62970;53.130;8.244;2022-09-27T16:07:48;1.07;;;1.00;;
10166;SDS011;62970;53.130;8.244;2022-09-27T16:10:23;0.87;;;0.80;;
10166;SDS011;62970;53.130;8.244;2022-09-27T16:12:59;0.63;;;0.63;;
10166;SDS011;62970;53.130;8.244;2022-09-27T16:15:28;1.80;;;1.20;;
10166;SDS011;62970;53.130;8.244;2022-09-27T16:17:58;1.30;;;1.20;;
10166;SDS011;62970;53.130;8.244;2022-09-27T16:20:28;1.00;;;1.00;;
10166;SDS011;62970;53.130;8.244;2022-09-27T16:22:58;2.63;;;1.80;;
10166;SDS011;62970;53.130;8.244;2022-09-27T16:25:33;1.57;;;1.47;;
10166;SDS011;62970;53.130;8.244;2022-09-27T16:28:03;1.40;;;1.30;;
10166;SDS011;62970;53.130;8.244;2022-09-27T16:30:33;1.43;;;1.33;;
10166;SDS011;62970;53.130;8.244;2022-09-27T16:35:42;1.90;;;1.70;;
10166;SDS011;62970;53.130;8.244;2022-09-27T16:38:13;2.30;;;1.90;;